BYR weather

Læsø Airport
Læsø, North Jutland, Denmark

Public forecast

Using degrees Celsius for public forecast. Weather courtesy of forecast.io.

Closest aviation weather report (METAR) to Læsø Airport

Report is more than 6 hours old.

Closest report is Sindal Airport, 28.4 nm (52.6 km) WNW. Retrieved 2019/12/05 12:50 UTC (6 hours ago):

EKSN 051250Z 23018KT 9999 -SHRA SCT015 BKN023CB 08/05 Q1005

Closest aviation forecast (TAF) to Læsø Airport

Closest forecast is Aalborg Airport, 39.0 nm (72.3 km) WSW. Retrieved 2019/12/05 21:27 UTC (0 seconds ago):

TAF TAF EKYT 052022Z 0521/0621 21015G28KT 9999 BKN030 BECMG 0521/0524 5000 -RA BKN012 TEMPO 0600/0606 22022G36KT 3000 RADZ BR BKN006 BECMG 0606/0608 24015KT TEMPO 0608/0621 3000 -RA BR BKN006